Time,TemperatureF,DewpointF,PressureIn,WindDirection,WindDirectionDegrees,WindSpeedMPH,WindSpeedGustMPH,Humidity,HourlyPrecipIn,Conditions,Clouds,dailyrainin,SoftwareType,DateUTC
2013-02-06 00:14:00,38.8,31.0,29.99,SSW,212,8.0,16.0,73,0.00,,,0.00,weatherlink.com 1.10,2013-02-06 08:14:00,
2013-02-06 00:30:00,38.7,31.0,29.99,SW,221,8.0,15.0,73,0.00,,,0.00,weatherlink.com 1.10,2013-02-06 08:30:00,
2013-02-06 00:45:00,38.5,31.0,29.99,SW,221,10.0,15.0,74,0.00,,,0.00,weatherlink.com 1.10,2013-02-06 08:45:00,
2013-02-06 01:00:00,38.3,30.0,30.00,SSW,209,5.0,11.0,73,0.00,,,0.00,weatherlink.com 1.10,2013-02-06 09:00:00,
2013-02-06 01:15:00,38.3,30.0,30.00,SSW,195,7.0,13.0,73,0.00,,,0.00,weatherlink.com 1.10,2013-02-06 09:15:00,
2013-02-06 01:31:00,39.2,31.0,30.00,SW,222,7.0,12.0,71,0.00,,,0.00,weatherlink.com 1.10,2013-02-06 09:31:00,
2013-02-06 01:46:00,39.1,30.0,30.00,SSW,209,6.0,13.0,71,0.00,,,0.00,weatherlink.com 1.10,2013-02-06 09:46:00,
2013-02-06 02:01:00,38.9,30.0,30.00,SSW,200,8.0,12.0,70,0.00,,,0.00,weatherlink.com 1.10,2013-02-06 10:01:00,
2013-02-06 02:16:00,38.5,29.0,30.00,SSW,194,10.0,16.0,70,0.00,,,0.00,weatherlink.com 1.10,2013-02-06 10:16:00,
2013-02-06 02:31:00,38.3,29.0,30.01,SSW,203,4.0,11.0,70,0.00,,,0.00,weatherlink.com 1.10,2013-02-06 10:31:00,
2013-02-06 02:46:00,38.0,29.0,30.01,SSW,199,6.0,10.0,71,0.00,,,0.00,weatherlink.com 1.10,2013-02-06 10:46:00,
2013-02-06 03:01:00,37.2,29.0,30.01,South,187,0.0,7.0,73,0.00,,,0.00,weatherlink.com 1.10,2013-02-06 11:01:00,
2013-02-06 03:16:00,36.1,29.0,30.02,South,188,5.0,7.0,75,0.00,,,0.00,weatherlink.com 1.10,2013-02-06 11:16:00,
2013-02-06 03:32:00,36.9,29.0,30.01,South,169,3.0,8.0,74,0.00,,,0.00,weatherlink.com 1.10,2013-02-06 11:32:00,
2013-02-06 03:47:00,36.7,29.0,30.01,South,182,4.0,8.0,74,0.00,,,0.00,weatherlink.com 1.10,2013-02-06 11:47:00,
2013-02-06 04:02:00,36.2,29.0,30.01,SSW,194,0.0,10.0,75,0.00,,,0.00,weatherlink.com 1.10,2013-02-06 12:02:00,
2013-02-06 04:17:00,36.9,29.0,30.01,SSW,196,0.0,10.0,74,0.00,,,0.00,weatherlink.com 1.10,2013-02-06 12:17:00,
2013-02-06 04:32:00,37.1,29.0,30.02,South,172,2.0,8.0,73,0.00,,,0.00,weatherlink.com 1.10,2013-02-06 12:32:00,
2013-02-06 04:47:00,37.5,30.0,30.02,South,186,6.0,9.0,74,0.00,,,0.00,weatherlink.com 1.10,2013-02-06 12:47:00,
2013-02-06 05:02:00,37.8,30.0,30.02,South,178,5.0,11.0,73,0.00,,,0.00,weatherlink.com 1.10,2013-02-06 13:02:00,
2013-02-06 05:18:00,38.3,30.0,30.02,South,191,5.0,10.0,72,0.00,,,0.00,weatherlink.com 1.10,2013-02-06 13:18:00,
2013-02-06 05:34:00,39.1,30.0,30.02,South,190,5.0,11.0,70,0.00,,,0.00,weatherlink.com 1.10,2013-02-06 13:34:00,
2013-02-06 05:49:00,38.8,30.0,30.02,South,171,2.0,10.0,70,0.00,,,0.00,weatherlink.com 1.10,2013-02-06 13:49:00,
2013-02-06 06:04:00,38.6,29.0,30.02,South,180,3.0,10.0,69,0.00,,,0.00,weatherlink.com 1.10,2013-02-06 14:04:00,
2013-02-06 06:19:00,38.2,29.0,30.02,South,182,3.0,10.0,70,0.00,,,0.00,weatherlink.com 1.10,2013-02-06 14:19:00,
2013-02-06 06:34:00,37.8,29.0,30.02,South,188,7.0,9.0,70,0.00,,,0.00,weatherlink.com 1.10,2013-02-06 14:34:00,
2013-02-06 06:50:00,36.2,28.0,30.02,SSE,165,0.0,0.0,72,0.00,,,0.00,weatherlink.com 1.10,2013-02-06 14:50:00,
2013-02-06 07:05:00,35.7,28.0,30.02,SSE,164,1.0,7.0,74,0.00,,,0.00,weatherlink.com 1.10,2013-02-06 15:05:00,
2013-02-06 07:19:00,35.8,28.0,30.02,South,189,0.0,8.0,74,0.00,,,0.00,weatherlink.com 1.10,2013-02-06 15:19:00,
2013-02-06 07:34:00,36.2,28.0,30.03,South,191,0.0,7.0,73,0.00,,,0.00,weatherlink.com 1.10,2013-02-06 15:34:00,
2013-02-06 07:49:00,37.6,29.0,30.04,SSW,195,0.0,7.0,71,0.00,,,0.00,weatherlink.com 1.10,2013-02-06 15:49:00,
2013-02-06 08:04:00,37.9,29.0,30.04,SSW,203,5.0,7.0,70,0.00,,,0.00,weatherlink.com 1.10,2013-02-06 16:04:00,
2013-02-06 08:20:00,39.1,29.0,30.04,SSW,206,0.0,8.0,68,0.00,,,0.00,weatherlink.com 1.10,2013-02-06 16:20:00,
2013-02-06 08:34:00,39.7,29.0,30.05,SSW,198,5.0,11.0,65,0.00,,,0.00,weatherlink.com 1.10,2013-02-06 16:34:00,
2013-02-06 08:50:00,41.6,29.0,30.05,South,191,11.0,13.0,62,0.00,,,0.00,weatherlink.com 1.10,2013-02-06 16:50:00,
2013-02-06 09:04:00,41.2,30.0,30.05,South,169,5.0,13.0,64,0.00,,,0.00,weatherlink.com 1.10,2013-02-06 17:04:00,
2013-02-06 09:20:00,42.0,30.0,30.05,SSW,196,9.0,9.0,62,0.00,,,0.00,weatherlink.com 1.10,2013-02-06 17:20:00,
2013-02-06 09:35:00,42.6,29.0,30.05,South,171,0.0,12.0,60,0.00,,,0.00,weatherlink.com 1.10,2013-02-06 17:35:00,
2013-02-06 09:50:00,43.2,30.0,30.05,SSE,155,0.0,12.0,59,0.00,,,0.00,weatherlink.com 1.10,2013-02-06 17:50:00,
2013-02-06 10:05:00,44.4,30.0,30.05,South,171,4.0,9.0,57,0.00,,,0.00,weatherlink.com 1.10,2013-02-06 18:05:00,
2013-02-06 10:20:00,44.7,29.0,30.05,SSE,160,2.0,10.0,55,0.00,,,0.00,weatherlink.com 1.10,2013-02-06 18:20:00,
2013-02-06 10:35:00,45.7,29.0,30.05,SSW,196,6.0,11.0,53,0.00,,,0.00,weatherlink.com 1.10,2013-02-06 18:35:00,
2013-02-06 10:50:00,45.3,29.0,30.05,SSW,198,6.0,10.0,54,0.00,,,0.00,weatherlink.com 1.10,2013-02-06 18:50:00,
2013-02-06 11:06:00,45.5,29.0,30.04,SSW,213,3.0,9.0,52,0.00,,,0.00,weatherlink.com 1.10,2013-02-06 19:06:00,
2013-02-06 11:22:00,46.0,30.0,30.03,SSW,210,0.0,8.0,53,0.00,,,0.00,weatherlink.com 1.10,2013-02-06 19:22:00,
2013-02-06 11:36:00,47.0,29.0,30.03,SSW,195,4.0,10.0,50,0.00,,,0.00,weatherlink.com 1.10,2013-02-06 19:36:00,
2013-02-06 11:52:00,47.2,29.0,30.02,South,188,2.0,8.0,50,0.00,,,0.00,weatherlink.com 1.10,2013-02-06 19:52:00,
2013-02-06 12:06:00,46.9,28.0,30.02,SSW,196,3.0,10.0,49,0.00,,,0.00,weatherlink.com 1.10,2013-02-06 20:06:00,
2013-02-06 12:21:00,46.7,29.0,30.01,SSE,148,6.0,10.0,50,0.00,,,0.00,weatherlink.com 1.10,2013-02-06 20:21:00,
2013-02-06 12:37:00,46.8,27.0,30.00,South,172,0.0,9.0,47,0.00,,,0.00,weatherlink.com 1.10,2013-02-06 20:37:00,
2013-02-06 12:52:00,47.2,29.0,30.00,SSW,196,8.0,9.0,49,0.00,,,0.00,weatherlink.com 1.10,2013-02-06 20:52:00,
2013-02-06 13:07:00,46.9,28.0,29.99,South,188,9.0,9.0,48,0.00,,,0.00,weatherlink.com 1.10,2013-02-06 21:07:00,
2013-02-06 13:22:00,46.5,28.0,29.99,South,191,4.0,10.0,48,0.00,,,0.00,weatherlink.com 1.10,2013-02-06 21:22:00,
2013-02-06 13:37:00,46.4,27.0,29.98,SW,222,2.0,5.0,48,0.00,,,0.00,weatherlink.com 1.10,2013-02-06 21:37:00,
2013-02-06 13:54:00,46.7,28.0,29.98,WSW,253,0.0,5.0,48,0.00,,,0.00,weatherlink.com 1.10,2013-02-06 21:54:00,
2013-02-06 14:09:00,47.1,28.0,29.97,SSW,206,0.0,4.0,47,0.00,,,0.00,weatherlink.com 1.10,2013-02-06 22:09:00,
2013-02-06 14:24:00,47.3,27.0,29.96,SSW,206,0.0,0.0,46,0.00,,,0.00,weatherlink.com 1.10,2013-02-06 22:24:00,
2013-02-06 14:39:00,47.0,28.0,29.96,SSW,206,0.0,0.0,47,0.00,,,0.00,weatherlink.com 1.10,2013-02-06 22:39:00,
2013-02-06 14:54:00,46.7,28.0,29.95,SSW,206,0.0,0.0,48,0.00,,,0.00,weatherlink.com 1.10,2013-02-06 22:54:00,
2013-02-06 15:09:00,46.9,28.0,29.95,SSW,207,0.0,0.0,48,0.00,,,0.00,weatherlink.com 1.10,2013-02-06 23:09:00,
2013-02-06 15:24:00,47.1,28.0,29.94,SSW,207,0.0,0.0,48,0.00,,,0.00,weatherlink.com 1.10,2013-02-06 23:24:00,
2013-02-06 15:39:00,47.1,30.0,29.93,SW,221,0.0,0.0,51,0.00,,,0.00,weatherlink.com 1.10,2013-02-06 23:39:00,
2013-02-06 15:54:00,46.6,30.0,29.92,SW,223,0.0,0.0,52,0.00,,,0.00,weatherlink.com 1.10,2013-02-06 23:54:00,
2013-02-06 16:09:00,46.4,30.0,29.92,SW,236,0.0,0.0,54,0.00,,,0.00,weatherlink.com 1.10,2013-02-07 00:09:00,
2013-02-06 16:24:00,45.9,31.0,29.91,WSW,237,0.0,0.0,57,0.00,,,0.00,weatherlink.com 1.10,2013-02-07 00:24:00,
2013-02-06 16:39:00,44.8,31.0,29.91,WSW,237,0.0,0.0,60,0.00,,,0.00,weatherlink.com 1.10,2013-02-07 00:39:00,
2013-02-06 16:54:00,44.3,31.0,29.91,WSW,238,0.0,0.0,61,0.00,,,0.00,weatherlink.com 1.10,2013-02-07 00:54:00,
2013-02-06 17:10:00,42.9,31.0,29.90,WSW,238,0.0,0.0,62,0.00,,,0.00,weatherlink.com 1.10,2013-02-07 01:10:00,
2013-02-06 17:25:00,41.9,30.0,29.90,WSW,247,0.0,0.0,64,0.00,,,0.00,weatherlink.com 1.10,2013-02-07 01:25:00,
2013-02-06 17:40:00,40.8,31.0,29.90,WSW,248,0.0,0.0,67,0.00,,,0.00,weatherlink.com 1.10,2013-02-07 01:40:00,
2013-02-06 17:55:00,39.9,29.0,29.90,WSW,248,0.0,0.0,66,0.00,,,0.00,weatherlink.com 1.10,2013-02-07 01:55:00,
2013-02-06 18:10:00,39.7,28.0,29.89,WSW,248,0.0,0.0,64,0.00,,,0.00,weatherlink.com 1.10,2013-02-07 02:10:00,
2013-02-06 18:25:00,39.5,28.0,29.89,WSW,249,0.0,0.0,64,0.00,,,0.00,weatherlink.com 1.10,2013-02-07 02:25:00,
2013-02-06 18:41:00,38.3,27.0,29.88,WNW,302,0.0,0.0,65,0.00,,,0.00,weatherlink.com 1.10,2013-02-07 02:41:00,
2013-02-06 18:55:00,37.8,27.0,29.88,WNW,302,0.0,0.0,66,0.00,,,0.00,weatherlink.com 1.10,2013-02-07 02:55:00,
2013-02-06 19:11:00,37.1,28.0,29.89,WNW,302,0.0,0.0,70,0.00,,,0.00,weatherlink.com 1.10,2013-02-07 03:11:00,
2013-02-06 19:26:00,36.5,29.0,29.88,WNW,302,0.0,3.0,74,0.00,,,0.00,weatherlink.com 1.10,2013-02-07 03:26:00,
2013-02-06 19:41:00,36.0,29.0,29.88,WNW,302,0.0,4.0,76,0.00,,,0.00,weatherlink.com 1.10,2013-02-07 03:41:00,
2013-02-06 19:56:00,36.8,30.0,29.88,WNW,302,0.0,0.0,75,0.00,,,0.00,weatherlink.com 1.10,2013-02-07 03:56:00,
2013-02-06 20:11:00,37.0,30.0,29.88,WNW,302,0.0,0.0,75,0.00,,,0.00,weatherlink.com 1.10,2013-02-07 04:11:00,
2013-02-06 20:26:00,37.0,30.0,29.88,WNW,302,0.0,0.0,75,0.00,,,0.00,weatherlink.com 1.10,2013-02-07 04:26:00,
2013-02-06 20:42:00,37.2,30.0,29.88,WNW,302,0.0,0.0,75,0.00,,,0.00,weatherlink.com 1.10,2013-02-07 04:42:00,
2013-02-06 20:57:00,36.6,29.0,29.88,WNW,302,0.0,0.0,75,0.00,,,0.00,weatherlink.com 1.10,2013-02-07 04:57:00,
2013-02-06 21:12:00,35.2,29.0,29.87,WNW,302,0.0,0.0,79,0.00,,,0.00,weatherlink.com 1.10,2013-02-07 05:12:00,
2013-02-06 21:27:00,34.9,29.0,29.87,WNW,297,0.0,0.0,80,0.00,,,0.00,weatherlink.com 1.10,2013-02-07 05:27:00,
2013-02-06 21:42:00,34.3,29.0,29.87,SE,143,0.0,0.0,82,0.00,,,0.00,weatherlink.com 1.10,2013-02-07 05:42:00,
2013-02-06 21:57:00,34.1,29.0,29.87,SE,143,0.0,0.0,82,0.00,,,0.00,weatherlink.com 1.10,2013-02-07 05:57:00,
2013-02-06 22:12:00,33.9,29.0,29.87,South,171,0.0,5.0,82,0.00,,,0.00,weatherlink.com 1.10,2013-02-07 06:12:00,
2013-02-06 22:27:00,34.4,29.0,29.87,South,172,0.0,1.0,81,0.00,,,0.00,weatherlink.com 1.10,2013-02-07 06:27:00,
2013-02-06 22:44:00,34.7,29.0,29.86,South,172,0.0,0.0,80,0.00,,,0.00,weatherlink.com 1.10,2013-02-07 06:44:00,
2013-02-06 22:59:00,33.9,29.0,29.86,SSE,167,0.0,0.0,82,0.00,,,0.00,weatherlink.com 1.10,2013-02-07 06:59:00,
2013-02-06 23:14:00,33.5,29.0,29.85,ESE,113,0.0,2.0,84,0.00,,,0.00,weatherlink.com 1.10,2013-02-07 07:14:00,
2013-02-06 23:29:00,34.4,30.0,29.85,ESE,113,0.0,0.0,84,0.00,,,0.00,weatherlink.com 1.10,2013-02-07 07:29:00,
2013-02-06 23:44:00,34.5,30.0,29.85,ESE,113,0.0,0.0,82,0.00,,,0.00,weatherlink.com 1.10,2013-02-07 07:44:00,
2013-02-06 23:59:00,35.0,29.0,29.86,SW,217,0.0,3.0,80,0.00,,,0.00,weatherlink.com 1.10,2013-02-07 07:59:00,